Time;durP1;ratioP1;P1;durP2;ratioP2;P2;SDS_P1;SDS_P2;PMS_P1;PMS_P2;Temp;Humidity;BMP_temperature;BMP_pressure;BME280_temperature;BME280_humidity;BME280_pressure;Samples;Min_cycle;Max_cycle;Signal;HPM_P1;HPM_P2
2022/06/15 00:03:00;;;;;;;1.00;0.75;;;;;;;13.35;92.56;101825.13;6375619;27;20051;-75
2022/06/15 00:06:06;;;;;;;1.45;0.88;;;;;;;13.42;92.12;101823.91;6376200;27;20061;-75
2022/06/15 00:09:09;;;;;;;2.70;1.00;;;;;;;13.32;92.60;101824.41;6374198;27;20058;-75
2022/06/15 00:12:11;;;;;;;3.95;2.10;;;;;;;13.24;93.77;101819.50;6374965;27;20795;-75
2022/06/15 00:15:13;;;;;;;2.65;1.40;;;;;;;13.18;94.13;101812.69;6374650;27;20482;-75
2022/06/15 00:18:15;;;;;;;3.38;0.98;;;;;;;13.09;94.71;101812.28;6375166;27;20051;-75
2022/06/15 00:21:19;;;;;;;5.75;1.25;;;;;;;13.07;94.77;101801.78;6374737;27;20063;-75
2022/06/15 00:24:22;;;;;;;1.63;0.95;;;;;;;13.01;95.33;101802.06;6374706;27;20043;-74
2022/06/15 00:27:23;;;;;;;3.80;1.20;;;;;;;12.95;96.26;101803.22;6375006;27;20051;-75
2022/06/15 00:30:24;;;;;;;1.25;1.00;;;;;;;12.96;96.36;101798.78;6374510;27;20058;-75
2022/06/15 00:33:27;;;;;;;2.30;1.02;;;;;;;12.93;97.10;101801.56;6375714;27;20051;-75
2022/06/15 00:36:29;;;;;;;1.02;0.90;;;;;;;12.85;97.62;101803.69;6374307;27;20047;-75
2022/06/15 00:39:32;;;;;;;2.47;0.90;;;;;;;12.82;98.01;101804.69;6374373;27;20051;-76
2022/06/15 00:42:35;;;;;;;3.30;1.23;;;;;;;12.77;98.35;101814.63;6374293;27;20406;-75
2022/06/15 00:45:36;;;;;;;1.08;0.85;;;;;;;12.71;98.25;101814.88;6373906;27;20474;-76
2022/06/15 00:48:38;;;;;;;1.83;0.90;;;;;;;12.72;98.72;101808.69;6374538;27;20047;-75
2022/06/15 00:51:40;;;;;;;4.75;1.27;;;;;;;12.70;98.64;101808.75;6373879;27;20047;-75
2022/06/15 00:54:46;;;;;;;1.85;1.23;;;;;;;12.73;98.57;101812.19;6374094;27;20088;-75
2022/06/15 00:57:47;;;;;;;3.53;1.00;;;;;;;12.67;99.25;101802.75;6374004;27;20074;-75
2022/06/15 01:00:53;;;;;;;1.83;0.82;;;;;;;12.61;99.88;101798.59;6373868;27;20043;-76
2022/06/15 01:03:57;;;;;;;1.08;0.70;;;;;;;12.61;99.85;101793.34;6374847;27;20043;-75
2022/06/15 01:07:08;;;;;;;1.25;1.10;;;;;;;12.58;99.63;101804.03;6373962;27;20050;-76
2022/06/15 01:10:23;;;;;;;1.00;0.55;;;;;;;12.48;99.46;101800.06;6373533;27;20043;-76
2022/06/15 01:13:42;;;;;;;2.05;1.00;;;;;;;12.50;99.39;101798.25;6373868;27;20050;-75
2022/06/15 01:16:54;;;;;;;3.25;1.30;;;;;;;12.52;99.06;101795.53;6373671;27;20486;-75
2022/06/15 01:20:16;;;;;;;0.70;0.70;;;;;;;12.53;98.79;101784.06;6373019;27;20047;-76
2022/06/15 01:23:50;;;;;;;1.25;1.10;;;;;;;12.54;97.96;101783.16;6362880;27;20051;-77
2022/06/15 01:27:15;;;;;;;1.25;1.15;;;;;;;12.47;98.25;101784.34;6373566;27;20039;-75
2022/06/15 01:30:21;;;;;;;1.38;1.00;;;;;;;12.40;98.81;101787.25;6373163;27;20051;-76
2022/06/15 01:33:29;;;;;;;0.98;0.82;;;;;;;12.36;98.87;101785.69;6374267;27;20046;-76
2022/06/15 01:36:42;;;;;;;1.97;1.03;;;;;;;12.29;98.70;101794.75;6372958;27;20047;-76
2022/06/15 01:39:49;;;;;;;2.63;1.00;;;;;;;12.25;99.63;101793.19;6372766;27;20426;-76
2022/06/15 01:42:58;;;;;;;1.30;1.00;;;;;;;12.15;99.76;101790.09;6373498;27;20050;-75
2022/06/15 01:46:02;;;;;;;5.22;1.23;;;;;;;12.10;99.57;101791.22;6372662;27;20043;-75
2022/06/15 01:49:05;;;;;;;2.35;1.15;;;;;;;12.06;100.00;101787.84;6372954;27;20043;-75
2022/06/15 01:52:09;;;;;;;1.50;1.00;;;;;;;12.02;100.00;101785.41;6372412;27;20526;-76
2022/06/15 01:55:15;;;;;;;3.53;1.35;;;;;;;12.05;100.00;101796.69;6372431;27;20043;-76
2022/06/15 01:58:20;;;;;;;1.48;1.23;;;;;;;12.05;100.00;101793.19;6372681;27;20066;-75
2022/06/15 02:01:31;;;;;;;7.22;1.63;;;;;;;12.09;99.97;101790.38;6372317;27;20051;-75
2022/06/15 02:04:45;;;;;;;1.60;1.05;;;;;;;12.04;99.68;101783.59;6373360;27;20379;-75
2022/06/15 02:07:53;;;;;;;5.35;1.10;;;;;;;12.00;100.00;101785.50;6372639;27;20054;-75
2022/06/15 02:11:01;;;;;;;1.75;1.08;;;;;;;11.98;100.00;101784.69;6372001;27;20050;-75
2022/06/15 02:14:07;;;;;;;4.47;1.23;;;;;;;11.92;100.00;101777.06;6372551;27;20069;-75
2022/06/15 02:17:17;;;;;;;2.40;1.13;;;;;;;11.90;100.00;101771.00;6372081;27;20390;-76
2022/06/15 02:20:24;;;;;;;3.45;1.10;;;;;;;11.93;100.00;101771.72;6372090;27;20055;-75
2022/06/15 02:23:28;;;;;;;2.00;1.00;;;;;;;11.93;100.00;101774.34;6372180;27;20054;-75
2022/06/15 02:26:33;;;;;;;3.33;1.20;;;;;;;11.89;100.00;101764.84;6371792;27;20066;-75
2022/06/15 02:29:37;;;;;;;2.03;1.30;;;;;;;11.85;100.00;101768.53;6371692;28;20042;-75
2022/06/15 02:32:42;;;;;;;1.60;1.10;;;;;;;11.78;100.00;101759.16;6376649;27;20130;-77
2022/06/15 02:35:44;;;;;;;1.40;1.00;;;;;;;11.76;100.00;101763.63;6372711;27;20043;-77
2022/06/15 02:38:49;;;;;;;1.13;0.90;;;;;;;11.74;100.00;101752.31;6367841;28;20639;-77
2022/06/15 02:41:57;;;;;;;5.80;1.30;;;;;;;11.63;100.00;101755.41;6370001;28;20122;-73
2022/06/15 02:45:02;;;;;;;3.05;1.60;;;;;;;11.62;100.00;101755.44;6370150;28;20046;-74
2022/06/15 02:48:07;;;;;;;1.05;0.95;;;;;;;11.51;100.00;101761.16;6370319;28;20066;-74
2022/06/15 02:51:14;;;;;;;2.00;1.55;;;;;;;11.43;100.00;101757.97;6367573;28;20046;-74
2022/06/15 02:54:23;;;;;;;6.35;1.25;;;;;;;11.34;100.00;101759.22;6369936;28;20467;-75
2022/06/15 02:57:25;;;;;;;1.58;1.27;;;;;;;11.36;100.00;101753.91;6369624;28;20054;-74
2022/06/15 03:00:27;;;;;;;2.60;1.15;;;;;;;11.32;100.00;101757.56;6367545;28;20050;-74
2022/06/15 03:03:31;;;;;;;2.25;1.40;;;;;;;11.27;100.00;101754.28;6382512;27;20063;-74
2022/06/15 03:06:32;;;;;;;2.67;1.65;;;;;;;11.32;100.00;101750.53;6397054;27;20039;-74
2022/06/15 03:09:34;;;;;;;5.40;1.35;;;;;;;11.41;100.00;101742.25;6378429;27;20070;-73
2022/06/15 03:12:35;;;;;;;2.17;1.52;;;;;;;11.46;100.00;101736.81;6370037;27;20425;-74
2022/06/15 03:15:37;;;;;;;2.05;1.50;;;;;;;11.46;100.00;101739.44;6369806;28;20084;-74
2022/06/15 03:18:40;;;;;;;2.80;1.60;;;;;;;11.35;100.00;101745.13;6370031;28;20050;-75
2022/06/15 03:21:42;;;;;;;2.58;1.23;;;;;;;11.11;100.00;101741.72;6367018;28;20051;-74
2022/06/15 03:24:43;;;;;;;1.30;1.17;;;;;;;10.99;100.00;101749.22;6369442;28;20044;-74
2022/06/15 03:27:45;;;;;;;2.38;1.40;;;;;;;10.95;100.00;101748.50;6369855;28;20050;-74
2022/06/15 03:30:47;;;;;;;2.03;1.25;;;;;;;11.02;100.00;101752.59;6369280;28;20723;-74
2022/06/15 03:33:49;;;;;;;2.67;1.48;;;;;;;11.08;100.00;101752.38;6371749;27;20047;-74
2022/06/15 03:36:51;;;;;;;2.08;1.27;;;;;;;11.18;100.00;101752.88;6371158;28;20137;-74
2022/06/15 03:39:54;;;;;;;1.27;1.17;;;;;;;11.22;100.00;101757.09;6370822;28;20043;-74
2022/06/15 03:42:56;;;;;;;3.67;1.60;;;;;;;11.32;100.00;101750.53;6372749;27;20050;-74
2022/06/15 03:45:57;;;;;;;4.75;1.55;;;;;;;11.39;100.00;101748.50;6375455;27;20043;-75
2022/06/15 03:49:00;;;;;;;2.72;1.30;;;;;;;11.42;100.00;101743.13;6376024;27;20422;-74
2022/06/15 03:52:01;;;;;;;2.75;1.55;;;;;;;11.28;100.00;101746.31;6375268;27;20399;-74
2022/06/15 03:55:02;;;;;;;6.57;1.73;;;;;;;11.20;100.00;101744.91;6375169;27;20043;-74
2022/06/15 03:58:04;;;;;;;4.05;1.60;;;;;;;11.19;100.00;101744.03;6375215;27;20047;-75
2022/06/15 04:01:06;;;;;;;1.25;1.15;;;;;;;11.18;100.00;101743.19;6375073;27;20490;-74
2022/06/15 04:04:09;;;;;;;4.72;1.50;;;;;;;11.15;100.00;101740.69;6376127;27;20069;-74
2022/06/15 04:08:34;;;;;;;4.00;1.40;;;;;;;11.14;100.00;101746.00;6375276;27;20383;-74
2022/06/15 04:10:41;;;;;;;6.10;1.30;;;;;;;11.14;100.00;101746.88;6374592;27;20043;-77
2022/06/15 04:13:42;;;;;;;5.10;1.77;;;;;;;11.18;100.00;101740.56;6374553;27;20406;-74
2022/06/15 04:16:44;;;;;;;1.50;1.27;;;;;;;11.21;100.00;101736.09;6375141;27;20043;-74
2022/06/15 04:20:31;;;;;;;1.30;1.05;;;;;;;11.22;100.00;101730.78;6374789;27;20046;-75
2022/06/15 04:23:11;;;;;;;5.00;1.75;;;;;;;11.26;100.00;101728.84;6374891;27;20526;-75
2022/06/15 04:26:12;;;;;;;1.45;1.23;;;;;;;11.30;100.00;101730.44;6374213;27;20047;-75
2022/06/15 04:29:14;;;;;;;4.53;1.80;;;;;;;11.34;100.00;101730.25;6374992;27;20050;-74
2022/06/15 04:32:16;;;;;;;4.70;1.55;;;;;;;11.45;100.00;101723.72;6375160;27;20054;-74
2022/06/15 04:35:19;;;;;;;2.65;1.08;;;;;;;11.59;100.00;101724.84;6374423;27;20047;-74
2022/06/15 04:38:20;;;;;;;2.83;1.20;;;;;;;11.71;100.00;101722.63;6374423;27;20440;-75
2022/06/15 04:41:21;;;;;;;4.07;0.85;;;;;;;11.83;100.00;101722.97;6374237;27;20054;-74
2022/06/15 04:44:23;;;;;;;1.30;1.17;;;;;;;11.91;100.00;101722.66;6373517;27;20436;-75
2022/06/15 04:47:24;;;;;;;3.70;1.40;;;;;;;11.91;100.00;101727.94;6374625;27;20039;-74
2022/06/15 04:50:29;;;;;;;1.92;1.17;;;;;;;11.91;100.00;101722.66;6373844;27;20054;-76
2022/06/15 04:53:31;;;;;;;1.55;1.25;;;;;;;11.94;100.00;101725.16;6374119;27;20058;-77
2022/06/15 04:56:32;;;;;;;2.97;1.33;;;;;;;11.98;100.00;101728.50;6373145;27;20044;-76
2022/06/15 04:59:34;;;;;;;2.17;1.40;;;;;;;12.06;100.00;101732.53;6373898;27;20043;-76
2022/06/15 05:02:35;;;;;;;1.58;1.13;;;;;;;12.18;100.00;101733.78;6374790;27;20055;-77
2022/06/15 05:05:38;;;;;;;2.25;1.17;;;;;;;12.28;100.00;101729.81;6373563;27;20047;-76
2022/06/15 05:08:40;;;;;;;2.55;1.02;;;;;;;12.37;100.00;101728.53;6373845;27;20051;-77
2022/06/15 05:11:42;;;;;;;1.27;1.10;;;;;;;12.49;100.00;101732.38;6373032;27;20409;-77
2022/06/15 05:14:47;;;;;;;2.95;1.20;;;;;;;12.60;100.00;101741.53;6373280;27;20051;-74
2022/06/15 05:17:50;;;;;;;1.73;1.40;;;;;;;12.78;100.00;101731.91;6373410;27;20054;-77
2022/06/15 05:20:53;;;;;;;1.45;0.98;;;;;;;12.90;100.00;101733.13;6373327;27;20547;-76
2022/06/15 05:23:55;;;;;;;2.83;1.13;;;;;;;13.02;100.00;101735.16;6372942;27;20133;-76
2022/06/15 05:26:57;;;;;;;2.10;1.00;;;;;;;13.20;97.86;101730.78;6373558;27;20053;-76
2022/06/15 05:29:58;;;;;;;1.50;0.80;;;;;;;13.28;96.75;101739.22;6372865;27;20047;-76
2022/06/15 05:33:00;;;;;;;3.10;1.10;;;;;;;13.34;96.41;101738.91;6387514;27;20050;-77
2022/06/15 05:36:06;;;;;;;4.65;1.08;;;;;;;13.34;95.54;101741.56;6398393;27;20047;-77
2022/06/15 05:39:08;;;;;;;1.20;1.10;;;;;;;13.37;95.84;101732.66;6398685;27;20509;-77
2022/06/15 05:42:10;;;;;;;2.10;1.20;;;;;;;13.44;95.73;101744.59;6398433;27;20046;-77
2022/06/15 05:45:11;;;;;;;3.17;1.20;;;;;;;13.45;95.60;101743.69;6398076;27;20051;-76
2022/06/15 05:48:13;;;;;;;3.85;1.08;;;;;;;13.51;95.16;101740.72;6363480;27;20051;-77
2022/06/15 05:51:15;;;;;;;16.88;7.75;;;;;;;13.56;94.91;101741.34;6346949;28;20048;-77
2022/06/15 05:54:17;;;;;;;10.82;4.85;;;;;;;13.61;94.62;101741.13;6346943;28;20074;-76
2022/06/15 05:57:21;;;;;;;4.47;1.80;;;;;;;13.68;94.04;101738.09;6346977;28;20414;-78
2022/06/15 06:00:25;;;;;;;1.10;0.80;;;;;;;13.77;93.70;101734.16;6346795;28;20051;-77
2022/06/15 06:03:26;;;;;;;1.08;0.98;;;;;;;13.85;93.65;101733.75;6368805;27;20043;-76
2022/06/15 06:06:31;;;;;;;2.22;1.25;;;;;;;13.94;93.27;101735.91;6371225;27;20050;-77
2022/06/15 06:09:33;;;;;;;1.67;1.17;;;;;;;14.03;92.73;101742.50;6372509;27;20043;-77
2022/06/15 06:12:34;;;;;;;10.27;1.60;;;;;;;14.12;90.61;101734.09;6372047;27;20050;-76
2022/06/15 06:15:35;;;;;;;3.35;1.73;;;;;;;14.22;90.03;101732.69;6371769;27;20055;-77
2022/06/15 06:18:37;;;;;;;1.45;1.00;;;;;;;14.33;87.35;101730.34;6372274;27;20051;-77
2022/06/15 06:21:40;;;;;;;4.68;1.02;;;;;;;14.49;85.64;101722.47;6371976;27;20081;-77
2022/06/15 06:24:41;;;;;;;3.40;1.10;;;;;;;14.59;85.25;101738.69;6371787;27;20047;-77
2022/06/15 06:27:42;;;;;;;2.17;1.00;;;;;;;14.66;83.31;101740.06;6372040;27;20043;-77
2022/06/15 06:30:43;;;;;;;4.97;0.98;;;;;;;14.72;82.71;101739.75;6371607;27;20043;-78
2022/06/15 06:33:45;;;;;;;1.13;0.70;;;;;;;14.76;82.58;101737.75;6373148;27;20513;-78
2022/06/15 06:36:48;;;;;;;1.77;1.27;;;;;;;14.83;82.88;101742.63;6372131;28;20051;-77
2022/06/15 06:39:54;;;;;;;1.60;1.02;;;;;;;14.89;83.24;101731.69;6371759;28;20104;-77
2022/06/15 06:42:56;;;;;;;0.65;0.65;;;;;;;14.95;82.25;101736.66;6372135;28;20051;-76
2022/06/15 06:45:57;;;;;;;1.25;0.65;;;;;;;15.06;82.04;101736.06;6371324;28;20409;-77
2022/06/15 06:48:59;;;;;;;1.55;0.93;;;;;;;15.12;82.63;101734.84;6371620;28;20387;-76
2022/06/15 06:52:02;;;;;;;1.77;0.73;;;;;;;15.16;82.62;101734.59;6371420;28;20047;-77
2022/06/15 06:55:03;;;;;;;1.00;0.75;;;;;;;15.24;82.63;101731.50;6371740;28;20455;-76
2022/06/15 06:58:06;;;;;;;1.65;0.98;;;;;;;15.37;81.22;101734.31;6371201;28;20039;-77
2022/06/15 07:01:08;;;;;;;1.60;1.05;;;;;;;15.47;78.91;101724.88;6372607;27;20051;-76
2022/06/15 07:04:11;;;;;;;2.03;0.80;;;;;;;15.57;77.85;101730.50;6370353;27;20047;-73
2022/06/15 07:07:14;;;;;;;2.00;0.70;;;;;;;15.67;78.57;101724.63;6371749;28;20043;-77
2022/06/15 07:10:15;;;;;;;3.70;0.88;;;;;;;15.80;77.06;101724.72;6371173;28;20047;-78
2022/06/15 07:13:17;;;;;;;2.72;1.42;;;;;;;15.96;75.23;101725.53;6371790;28;20047;-77
2022/06/15 07:16:21;;;;;;;1.05;0.68;;;;;;;16.03;73.46;101718.03;6371184;28;20051;-76
2022/06/15 07:19:23;;;;;;;1.75;0.70;;;;;;;16.14;72.22;101725.38;6375586;27;20103;-77
2022/06/15 07:22:25;;;;;;;1.75;0.80;;;;;;;16.21;73.03;101724.91;6376289;27;20452;-77
2022/06/15 07:25:27;;;;;;;0.70;0.70;;;;;;;16.21;74.20;101724.03;6375864;27;20047;-76
2022/06/15 07:28:28;;;;;;;3.83;0.82;;;;;;;16.26;73.26;101723.75;6376650;27;20043;-77
2022/06/15 07:31:32;;;;;;;2.08;1.00;;;;;;;16.34;71.76;101718.81;6376848;27;20520;-75
2022/06/15 07:34:34;;;;;;;1.13;0.70;;;;;;;16.45;71.18;101716.38;6375934;27;20058;-77
2022/06/15 07:37:37;;;;;;;1.00;0.70;;;;;;;16.53;72.01;101724.69;6375911;27;20066;-78
2022/06/15 07:40:38;;;;;;;1.17;0.90;;;;;;;16.58;71.18;101722.63;6375533;27;20517;-75
2022/06/15 07:43:40;;;;;;;2.33;0.85;;;;;;;16.61;70.40;101722.41;6375744;27;20058;-75
2022/06/15 07:46:41;;;;;;;2.47;0.75;;;;;;;16.64;69.83;101719.56;6375959;27;20050;-75
2022/06/15 07:49:54;;;;;;;0.68;0.68;;;;;;;16.71;69.53;101725.31;6375647;27;20521;-75
2022/06/15 07:52:57;;;;;;;0.60;0.60;;;;;;;16.79;70.29;101722.22;6375844;27;20517;-76
2022/06/15 07:55:58;;;;;;;1.95;1.17;;;;;;;16.85;69.91;101724.47;6374999;27;20039;-74
2022/06/15 07:58:59;;;;;;;3.10;0.80;;;;;;;16.91;68.13;101714.31;6375275;27;20047;-76
2022/06/15 08:02:01;;;;;;;1.70;0.80;;;;;;;17.03;68.02;101717.13;6375939;27;20055;-72
2022/06/15 08:05:02;;;;;;;1.23;0.60;;;;;;;17.19;65.53;101715.19;6374535;27;20055;-72
2022/06/15 08:08:08;;;;;;;1.15;0.50;;;;;;;17.25;67.08;101714.78;6374260;27;20047;-73
2022/06/15 08:11:09;;;;;;;0.80;0.60;;;;;;;17.35;66.64;101715.88;6374436;27;20047;-71
2022/06/15 08:14:11;;;;;;;0.63;0.63;;;;;;;17.39;66.03;101714.69;6374795;27;20490;-72
2022/06/15 08:17:17;;;;;;;0.60;0.60;;;;;;;17.42;65.66;101713.66;6374961;27;20046;-71
2022/06/15 08:20:22;;;;;;;0.88;0.50;;;;;;;17.55;63.04;101719.00;6374683;27;20459;-72
2022/06/15 08:23:28;;;;;;;1.85;0.80;;;;;;;17.61;64.69;101711.47;6374945;27;20051;-73
2022/06/15 08:26:33;;;;;;;2.30;0.45;;;;;;;17.67;64.18;101719.03;6374596;27;20513;-72
2022/06/15 08:29:35;;;;;;;1.48;0.60;;;;;;;17.70;64.38;101710.00;6373602;27;20053;-74
2022/06/15 08:32:37;;;;;;;2.33;0.95;;;;;;;17.88;63.68;101702.59;6375735;27;20205;-74
2022/06/15 08:35:39;;;;;;;1.17;0.90;;;;;;;17.91;64.38;101699.75;6373948;27;20054;-75
2022/06/15 08:38:41;;;;;;;0.68;0.52;;;;;;;17.97;64.02;101699.31;6374756;27;20051;-73
2022/06/15 08:41:50;;;;;;;1.17;0.73;;;;;;;17.94;63.94;101696.84;6373918;27;20055;-73
2022/06/15 08:45:00;;;;;;;1.92;0.80;;;;;;;18.07;63.87;101688.88;6374262;27;20103;-72
2022/06/15 08:48:22;;;;;;;2.22;1.00;;;;;;;18.19;62.07;101688.03;6374602;27;20047;-72
2022/06/15 08:51:30;;;;;;;3.92;0.98;;;;;;;18.34;63.04;101694.06;6374039;27;20511;-75
2022/06/15 08:54:39;;;;;;;1.55;0.88;;;;;;;18.45;61.71;101684.38;6373751;27;20422;-72
2022/06/15 08:57:44;;;;;;;0.63;0.57;;;;;;;18.49;62.87;101691.19;6374057;27;20407;-73
2022/06/15 09:00:47;;;;;;;4.25;0.70;;;;;;;18.53;61.64;101686.50;6374775;27;20054;-73
2022/06/15 09:03:56;;;;;;;3.95;1.30;;;;;;;18.57;60.66;101687.09;6373674;27;20054;-72
2022/06/15 09:07:11;;;;;;;1.75;0.75;;;;;;;18.59;61.98;101675.38;6373767;27;20468;-73
2022/06/15 09:10:33;;;;;;;0.52;0.52;;;;;;;18.67;61.18;101680.16;6373495;27;20502;-73
2022/06/15 09:13:56;;;;;;;3.70;0.82;;;;;;;18.72;61.45;101676.22;6373701;27;20047;-72
2022/06/15 09:17:02;;;;;;;0.85;0.82;;;;;;;18.81;59.14;101680.03;6373385;27;20051;-73
2022/06/15 09:20:08;;;;;;;3.03;1.02;;;;;;;18.89;59.47;101676.78;6372840;27;20498;-72
2022/06/15 09:23:16;;;;;;;1.98;0.70;;;;;;;19.09;59.18;101680.66;6373699;27;20046;-73
2022/06/15 09:26:24;;;;;;;0.55;0.52;;;;;;;19.17;58.16;101679.13;6372996;27;20128;-72
2022/06/15 09:29:31;;;;;;;2.40;0.80;;;;;;;19.29;56.60;101671.16;6373461;27;20054;-73
2022/06/15 09:32:38;;;;;;;2.40;0.75;;;;;;;19.32;56.17;101666.47;6373990;27;20540;-72
2022/06/15 09:35:43;;;;;;;2.25;0.90;;;;;;;19.40;55.21;101665.91;6372975;27;20051;-72
2022/06/15 09:38:45;;;;;;;2.00;1.00;;;;;;;19.48;54.75;101669.69;6372869;27;20050;-72
2022/06/15 09:41:51;;;;;;;1.88;0.77;;;;;;;19.45;56.14;101669.06;6372297;27;20043;-72
2022/06/15 09:45:02;;;;;;;1.52;0.70;;;;;;;19.49;53.88;101665.19;6372374;27;20055;-73
2022/06/15 09:48:12;;;;;;;0.75;0.68;;;;;;;19.77;54.16;101663.94;6372858;27;20046;-73
2022/06/15 09:51:21;;;;;;;2.63;0.80;;;;;;;19.82;54.26;101667.09;6372382;27;20047;-72
2022/06/15 09:54:30;;;;;;;1.13;0.57;;;;;;;19.87;54.91;101661.41;6372292;27;20055;-73
2022/06/15 09:57:33;;;;;;;0.55;0.55;;;;;;;19.93;55.74;101669.78;6372415;27;20051;-73
2022/06/15 10:00:37;;;;;;;1.60;0.70;;;;;;;20.16;53.61;101673.31;6373297;27;20050;-73
2022/06/15 10:03:43;;;;;;;1.42;0.90;;;;;;;20.35;52.73;101669.16;6372736;27;20078;-72
2022/06/15 10:06:49;;;;;;;1.92;0.90;;;;;;;20.26;53.93;101676.13;6372538;27;20051;-73
2022/06/15 10:09:54;;;;;;;2.95;0.80;;;;;;;20.22;53.51;101672.84;6372025;27;20058;-73
2022/06/15 10:12:59;;;;;;;2.28;0.80;;;;;;;20.30;54.33;101669.53;6372450;27;20513;-73
2022/06/15 10:16:04;;;;;;;1.13;0.77;;;;;;;20.41;52.44;101671.38;6371790;27;20043;-73
2022/06/15 10:19:09;;;;;;;1.05;0.85;;;;;;;20.45;51.55;101671.00;6372277;27;20054;-73
2022/06/15 10:22:23;;;;;;;4.68;0.70;;;;;;;20.55;54.31;101660.44;6371608;27;20413;-73
2022/06/15 10:25:27;;;;;;;1.17;0.73;;;;;;;20.72;51.51;101657.25;6371859;27;20513;-72
2022/06/15 10:28:37;;;;;;;3.53;1.23;;;;;;;20.81;51.74;101662.84;6371823;27;20047;-72
2022/06/15 10:31:38;;;;;;;1.63;0.95;;;;;;;20.88;50.87;101659.50;6387253;27;20052;-73
2022/06/15 10:35:05;;;;;;;2.22;0.68;;;;;;;20.84;50.22;101644.69;6397248;27;20047;-73
2022/06/15 10:38:12;;;;;;;1.40;0.80;;;;;;;20.78;50.91;101645.22;6397616;27;20079;-73
2022/06/15 10:44:38;;;;;;;2.22;0.77;;;;;;;21.11;50.86;101644.25;6397159;27;20059;-74
2022/06/15 10:47:44;;;;;;;1.58;0.90;;;;;;;21.17;48.63;101638.41;6393972;27;20121;-73
2022/06/15 10:50:52;;;;;;;1.40;0.85;;;;;;;21.13;49.21;101634.28;6371477;28;20050;-73
2022/06/15 10:54:23;;;;;;;1.70;0.80;;;;;;;21.35;49.67;101630.69;6374978;27;20096;-74
2022/06/15 11:04:17;;;;;;;0.63;0.60;;;;;;;22.00;48.76;101616.09;6376383;27;20055;-72
2022/06/15 11:07:28;;;;;;;0.90;0.90;;;;;;;22.15;47.88;101605.91;6376792;27;20047;-74
2022/06/15 11:10:35;;;;;;;2.05;0.73;;;;;;;22.28;47.09;101603.81;6376016;27;20054;-73
2022/06/15 11:13:38;;;;;;;2.70;0.95;;;;;;;22.28;45.55;101597.63;6376797;27;20565;-73
2022/06/15 11:19:59;;;;;;;1.88;0.90;;;;;;;23.14;44.13;101596.03;6376110;27;20502;-73
2022/06/15 11:23:07;;;;;;;1.52;0.82;;;;;;;23.57;43.76;101589.28;6376227;27;20051;-73
2022/06/15 11:29:41;;;;;;;1.13;1.02;;;;;;;23.90;41.95;101592.47;6377418;27;20047;-74
2022/06/15 11:32:46;;;;;;;1.10;0.70;;;;;;;23.87;41.68;101588.22;6376040;27;20062;-73
2022/06/15 11:35:57;;;;;;;3.72;1.02;;;;;;;23.82;41.97;101590.53;6376065;27;20047;-74
2022/06/15 11:39:03;;;;;;;1.02;0.82;;;;;;;23.93;41.27;101582.25;6375800;27;20063;-73
2022/06/15 11:42:09;;;;;;;0.65;0.60;;;;;;;24.07;41.04;101583.59;6375681;27;20414;-74
2022/06/15 11:45:13;;;;;;;1.52;0.77;;;;;;;24.38;41.67;101578.78;6375526;27;20510;-74
2022/06/15 11:48:26;;;;;;;1.80;0.90;;;;;;;24.51;40.37;101576.59;6375966;27;20559;-74
2022/06/15 11:51:38;;;;;;;7.18;1.00;;;;;;;24.87;40.51;101570.38;6375285;27;20070;-74
2022/06/15 11:54:59;;;;;;;3.80;0.93;;;;;;;25.14;39.91;101572.97;6375746;27;20043;-74
2022/06/15 11:58:28;;;;;;;0.60;0.55;;;;;;;25.39;39.71;101565.94;6375530;27;20043;-74
2022/06/15 12:01:37;;;;;;;1.37;0.90;;;;;;;25.97;37.27;101557.13;6377412;27;20054;-74
2022/06/15 12:04:52;;;;;;;1.88;0.60;;;;;;;26.29;37.44;101555.56;6375011;27;20521;-74
2022/06/15 12:08:06;;;;;;;1.85;0.80;;;;;;;26.42;35.93;101555.09;6375329;27;20490;-74
2022/06/15 12:14:47;;;;;;;1.23;0.60;;;;;;;26.04;38.87;101551.97;6375403;27;20059;-74
2022/06/15 12:17:56;;;;;;;1.33;0.60;;;;;;;26.37;36.38;101554.75;6400918;27;20042;-74
2022/06/15 12:21:04;;;;;;;1.13;0.77;;;;;;;26.63;35.13;101542.00;6400348;27;20054;-74
2022/06/15 12:24:14;;;;;;;1.08;0.95;;;;;;;26.78;33.35;101542.19;6394285;27;20043;-74
2022/06/15 12:27:23;;;;;;;1.08;0.82;;;;;;;26.68;34.29;101539.66;6374942;27;20050;-75
2022/06/15 12:30:35;;;;;;;3.30;0.60;;;;;;;26.26;35.54;101539.75;6385045;27;20051;-74
2022/06/15 12:33:43;;;;;;;1.33;0.70;;;;;;;25.99;34.16;101535.44;6400852;27;20042;-74
2022/06/15 12:36:49;;;;;;;1.90;0.90;;;;;;;26.01;34.11;101533.41;6400366;27;20386;-74
2022/06/15 12:40:03;;;;;;;0.75;0.50;;;;;;;26.13;34.05;101528.59;6399633;27;20562;-74
2022/06/15 12:43:15;;;;;;;0.68;0.60;;;;;;;26.27;34.28;101538.72;6400741;27;20042;-74
2022/06/15 12:46:18;;;;;;;1.95;1.10;;;;;;;26.30;34.20;101539.25;6399695;27;20047;-74
2022/06/15 12:49:27;;;;;;;0.50;0.50;;;;;;;26.44;35.66;101534.25;6400192;27;20043;-73
2022/06/15 12:52:34;;;;;;;2.70;1.30;;;;;;;26.75;34.45;101532.59;6399581;27;20039;-75
2022/06/15 12:55:44;;;;;;;1.00;0.75;;;;;;;26.58;33.89;101538.97;6400028;27;20061;-74
2022/06/15 12:58:58;;;;;;;0.80;0.77;;;;;;;26.67;35.52;101523.66;6399501;27;20039;-75
2022/06/15 13:02:09;;;;;;;1.95;0.80;;;;;;;26.84;34.38;101528.00;6393985;27;20039;-74
2022/06/15 13:05:20;;;;;;;2.78;0.68;;;;;;;27.18;33.86;101535.94;6373806;27;20066;-74
2022/06/15 13:08:32;;;;;;;0.98;0.85;;;;;;;26.93;33.67;101528.84;6373745;27;20051;-74
2022/06/15 13:11:59;;;;;;;1.05;0.75;;;;;;;26.83;33.69;101533.56;6373454;27;20047;-73
2022/06/15 13:15:01;;;;;;;3.35;0.77;;;;;;;26.56;33.92;101538.28;6372698;27;20057;-74
2022/06/15 13:18:09;;;;;;;1.15;0.60;;;;;;;26.25;34.37;101528.13;6373434;27;20459;-76
2022/06/15 13:21:11;;;;;;;1.30;0.80;;;;;;;26.06;35.79;101526.53;6372929;27;20108;-74
2022/06/15 13:24:12;;;;;;;2.30;0.80;;;;;;;26.12;35.18;101518.81;6373189;27;20047;-74
2022/06/15 13:27:21;;;;;;;1.23;0.85;;;;;;;26.63;36.07;101525.00;6373380;27;20043;-74
2022/06/15 13:30:26;;;;;;;0.98;0.75;;;;;;;26.75;33.99;101520.94;6385643;27;20049;-75
2022/06/15 13:34:12;;;;;;;1.10;0.90;;;;;;;26.55;34.17;101515.03;6399243;27;20050;-74
2022/06/15 13:37:26;;;;;;;1.02;0.60;;;;;;;26.36;34.42;101523.41;6398909;27;20054;-75
2022/06/15 13:41:01;;;;;;;3.17;1.02;;;;;;;26.41;35.05;101512.97;6398105;27;20478;-74
2022/06/15 13:44:19;;;;;;;0.63;0.63;;;;;;;26.51;33.77;101519.91;6398331;27;20046;-75
2022/06/15 13:47:24;;;;;;;1.98;1.05;;;;;;;26.73;34.07;101520.25;6398846;27;20134;-76
2022/06/15 13:50:30;;;;;;;1.63;0.65;;;;;;;26.64;32.10;101510.50;6398188;27;20074;-76
2022/06/15 13:53:43;;;;;;;1.35;0.75;;;;;;;26.56;33.72;101511.31;6398691;27;20050;-75
2022/06/15 13:56:55;;;;;;;6.15;1.33;;;;;;;26.58;32.36;101508.47;6398362;27;20050;-75
2022/06/15 14:00:07;;;;;;;0.95;0.70;;;;;;;26.58;33.02;101512.00;6396092;27;20116;-76
2022/06/15 14:03:24;;;;;;;2.50;0.80;;;;;;;26.62;33.30;101512.53;6384309;27;20058;-75
2022/06/15 14:06:36;;;;;;;1.38;0.70;;;;;;;26.63;33.94;101500.72;6372598;27;20486;-75
2022/06/15 14:09:54;;;;;;;2.05;0.90;;;;;;;26.79;31.97;101498.84;6372110;27;20053;-74
2022/06/15 14:13:25;;;;;;;1.40;0.90;;;;;;;27.14;33.57;101499.50;6347126;28;20134;-73
2022/06/15 14:16:43;;;;;;;1.38;0.88;;;;;;;27.28;33.04;101487.16;6346638;28;20055;-71
2022/06/15 14:19:53;;;;;;;0.63;0.63;;;;;;;27.49;31.58;101487.44;6346418;28;20054;-71
2022/06/15 14:22:57;;;;;;;2.72;0.80;;;;;;;27.04;31.88;101486.19;6346910;28;20051;-71
2022/06/15 14:26:00;;;;;;;0.70;0.50;;;;;;;27.36;31.06;101483.59;6346375;28;20047;-75
2022/06/15 14:29:04;;;;;;;4.15;1.70;;;;;;;27.29;31.47;101491.53;6352622;27;20039;-76
2022/06/15 14:32:07;;;;;;;2.03;0.80;;;;;;;26.87;31.66;101489.06;6372069;27;20054;-76
2022/06/15 14:35:16;;;;;;;2.58;1.15;;;;;;;26.83;32.19;101491.25;6372121;28;20047;-76
2022/06/15 14:38:23;;;;;;;1.85;0.90;;;;;;;26.62;32.79;101482.88;6371930;28;20464;-75
2022/06/15 14:41:28;;;;;;;0.98;0.60;;;;;;;26.69;31.95;101494.66;6346707;28;20058;-76
2022/06/15 14:44:30;;;;;;;1.15;0.77;;;;;;;26.43;32.48;101482.16;6345904;28;20051;-75
2022/06/15 14:47:31;;;;;;;1.50;0.60;;;;;;;26.23;32.57;101487.00;6346982;28;20050;-76